High Point Park, New Jersey
Current Conditions -  °F | °C
As of 3:39 PM on Wednesday 26 Nov 2014 (Local Time) from KFWN Reporting Station
Light Snow Light Snow  
Wind Chill: 25°   Ceiling: 1000
Heat Index: 33°   Visibility: 1mi
Dew Point: 32°   Wind: 9mph
Humidity: 96%   Direction: 30°NNE
Pressure: 29.9"   Gusts: NA
Location:  41.2395°N, 74.6087°W
Report Text: KFWN 262039Z AUTO 03008KT 1SM -SN BR OVC010 01/00 A2990 RMK AO2 P0003 T00060000
Loading
Personal Weather Stations






























Interactive Weather Map New forecast layout! Learn more

10-Day Weather Forecast

Advertisements
Track Severe Weather on mobile